sensor_id;sensor_type;location;lat;lon;timestamp;P1;durP1;ratioP1;P2;durP2;ratioP2
64959;SDS011;51487;52.266;10.542;2023-02-14T00:01:47;10.32;;;7.97;;
64959;SDS011;51487;52.266;10.542;2023-02-14T00:04:14;11.48;;;7.90;;
64959;SDS011;51487;52.266;10.542;2023-02-14T00:06:41;11.90;;;7.88;;
64959;SDS011;51487;52.266;10.542;2023-02-14T00:09:11;12.70;;;8.73;;
64959;SDS011;51487;52.266;10.542;2023-02-14T00:11:40;12.40;;;7.95;;
64959;SDS011;51487;52.266;10.542;2023-02-14T00:14:06;11.15;;;8.02;;
64959;SDS011;51487;52.266;10.542;2023-02-14T00:16:51;10.90;;;8.25;;
64959;SDS011;51487;52.266;10.542;2023-02-14T00:19:17;11.77;;;8.63;;
64959;SDS011;51487;52.266;10.542;2023-02-14T00:21:45;11.60;;;7.90;;
64959;SDS011;51487;52.266;10.542;2023-02-14T00:24:13;11.80;;;8.73;;
64959;SDS011;51487;52.266;10.542;2023-02-14T00:26:41;12.40;;;9.07;;
64959;SDS011;51487;52.266;10.542;2023-02-14T00:29:11;10.63;;;8.30;;
64959;SDS011;51487;52.266;10.542;2023-02-14T00:31:40;11.00;;;8.23;;
64959;SDS011;51487;52.266;10.542;2023-02-14T00:34:07;10.55;;;7.95;;
64959;SDS011;51487;52.266;10.542;2023-02-14T00:36:34;13.13;;;8.48;;
64959;SDS011;51487;52.266;10.542;2023-02-14T00:39:03;12.50;;;8.80;;
64959;SDS011;51487;52.266;10.542;2023-02-14T00:41:32;12.40;;;9.45;;
64959;SDS011;51487;52.266;10.542;2023-02-14T00:43:58;11.95;;;8.93;;
64959;SDS011;51487;52.266;10.542;2023-02-14T00:46:24;12.18;;;8.57;;
64959;SDS011;51487;52.266;10.542;2023-02-14T00:48:51;13.25;;;9.00;;
64959;SDS011;51487;52.266;10.542;2023-02-14T00:51:17;11.75;;;8.38;;
64959;SDS011;51487;52.266;10.542;2023-02-14T00:53:44;12.77;;;8.55;;
64959;SDS011;51487;52.266;10.542;2023-02-14T00:56:12;14.05;;;9.13;;
64959;SDS011;51487;52.266;10.542;2023-02-14T00:58:39;11.80;;;9.02;;
64959;SDS011;51487;52.266;10.542;2023-02-14T01:01:07;12.07;;;7.75;;
64959;SDS011;51487;52.266;10.542;2023-02-14T01:03:33;10.88;;;7.97;;
64959;SDS011;51487;52.266;10.542;2023-02-14T01:06:00;11.90;;;8.63;;
64959;SDS011;51487;52.266;10.542;2023-02-14T01:08:26;11.25;;;8.30;;
64959;SDS011;51487;52.266;10.542;2023-02-14T01:10:52;11.65;;;8.43;;
64959;SDS011;51487;52.266;10.542;2023-02-14T01:13:18;11.02;;;7.63;;
64959;SDS011;51487;52.266;10.542;2023-02-14T01:15:45;12.82;;;7.53;;
64959;SDS011;51487;52.266;10.542;2023-02-14T01:18:15;11.95;;;8.88;;
64959;SDS011;51487;52.266;10.542;2023-02-14T01:20:43;13.30;;;8.10;;
64959;SDS011;51487;52.266;10.542;2023-02-14T01:23:09;12.23;;;8.32;;
64959;SDS011;51487;52.266;10.542;2023-02-14T01:25:35;10.15;;;8.05;;
64959;SDS011;51487;52.266;10.542;2023-02-14T01:28:02;11.57;;;8.40;;
64959;SDS011;51487;52.266;10.542;2023-02-14T01:30:29;11.88;;;8.43;;
64959;SDS011;51487;52.266;10.542;2023-02-14T01:32:55;11.32;;;8.40;;
64959;SDS011;51487;52.266;10.542;2023-02-14T01:35:20;11.70;;;8.20;;
64959;SDS011;51487;52.266;10.542;2023-02-14T01:37:46;11.30;;;8.45;;
64959;SDS011;51487;52.266;10.542;2023-02-14T01:40:11;13.43;;;9.00;;
64959;SDS011;51487;52.266;10.542;2023-02-14T01:42:38;12.50;;;8.85;;
64959;SDS011;51487;52.266;10.542;2023-02-14T01:45:08;11.20;;;8.43;;
64959;SDS011;51487;52.266;10.542;2023-02-14T01:47:46;11.85;;;8.32;;
64959;SDS011;51487;52.266;10.542;2023-02-14T01:50:37;13.02;;;9.43;;
64959;SDS011;51487;52.266;10.542;2023-02-14T01:53:12;11.77;;;8.43;;
64959;SDS011;51487;52.266;10.542;2023-02-14T01:55:56;11.40;;;8.35;;
64959;SDS011;51487;52.266;10.542;2023-02-14T01:58:30;11.80;;;9.15;;
64959;SDS011;51487;52.266;10.542;2023-02-14T02:01:01;12.48;;;8.93;;
64959;SDS011;51487;52.266;10.542;2023-02-14T02:03:47;13.02;;;9.48;;
64959;SDS011;51487;52.266;10.542;2023-02-14T02:06:19;13.55;;;8.73;;
64959;SDS011;51487;52.266;10.542;2023-02-14T02:11:45;13.95;;;9.40;;
64959;SDS011;51487;52.266;10.542;2023-02-14T02:14:13;13.30;;;9.25;;
64959;SDS011;51487;52.266;10.542;2023-02-14T02:16:56;15.43;;;10.00;;
64959;SDS011;51487;52.266;10.542;2023-02-14T02:28:52;14.75;;;9.77;;
64959;SDS011;51487;52.266;10.542;2023-02-14T02:32:02;12.77;;;9.57;;
64959;SDS011;51487;52.266;10.542;2023-02-14T02:38:08;15.27;;;9.53;;
64959;SDS011;51487;52.266;10.542;2023-02-14T02:52:48;17.52;;;10.05;;
64959;SDS011;51487;52.266;10.542;2023-02-14T02:55:40;18.33;;;10.70;;
64959;SDS011;51487;52.266;10.542;2023-02-14T02:58:57;16.85;;;10.07;;
64959;SDS011;51487;52.266;10.542;2023-02-14T03:01:42;16.13;;;11.02;;
64959;SDS011;51487;52.266;10.542;2023-02-14T03:04:16;16.15;;;10.85;;
64959;SDS011;51487;52.266;10.542;2023-02-14T03:07:17;14.90;;;9.30;;
64959;SDS011;51487;52.266;10.542;2023-02-14T03:10:11;15.23;;;10.52;;
64959;SDS011;51487;52.266;10.542;2023-02-14T03:21:58;14.52;;;10.07;;
64959;SDS011;51487;52.266;10.542;2023-02-14T03:24:43;16.40;;;10.48;;
64959;SDS011;51487;52.266;10.542;2023-02-14T03:27:29;15.23;;;10.40;;
64959;SDS011;51487;52.266;10.542;2023-02-14T03:32:50;15.70;;;9.88;;
64959;SDS011;51487;52.266;10.542;2023-02-14T03:38:17;15.45;;;9.85;;
64959;SDS011;51487;52.266;10.542;2023-02-14T03:40:59;14.63;;;9.70;;
64959;SDS011;51487;52.266;10.542;2023-02-14T03:46:05;14.70;;;10.32;;
64959;SDS011;51487;52.266;10.542;2023-02-14T03:48:43;15.52;;;10.38;;
64959;SDS011;51487;52.266;10.542;2023-02-14T03:51:12;14.07;;;10.38;;
64959;SDS011;51487;52.266;10.542;2023-02-14T03:53:41;17.05;;;10.35;;
64959;SDS011;51487;52.266;10.542;2023-02-14T03:56:16;14.07;;;10.57;;
64959;SDS011;51487;52.266;10.542;2023-02-14T03:58:46;16.50;;;9.93;;
64959;SDS011;51487;52.266;10.542;2023-02-14T04:01:20;13.65;;;9.75;;
64959;SDS011;51487;52.266;10.542;2023-02-14T04:04:01;14.10;;;9.63;;
64959;SDS011;51487;52.266;10.542;2023-02-14T04:06:31;13.90;;;8.98;;
64959;SDS011;51487;52.266;10.542;2023-02-14T04:08:56;13.85;;;9.73;;
64959;SDS011;51487;52.266;10.542;2023-02-14T04:11:22;16.63;;;9.85;;
64959;SDS011;51487;52.266;10.542;2023-02-14T04:13:47;15.13;;;9.93;;
64959;SDS011;51487;52.266;10.542;2023-02-14T04:16:13;15.25;;;10.70;;
64959;SDS011;51487;52.266;10.542;2023-02-14T04:18:40;13.90;;;9.48;;
64959;SDS011;51487;52.266;10.542;2023-02-14T04:21:29;15.32;;;10.02;;
64959;SDS011;51487;52.266;10.542;2023-02-14T04:23:55;14.38;;;9.05;;
64959;SDS011;51487;52.266;10.542;2023-02-14T04:26:20;14.82;;;10.13;;
64959;SDS011;51487;52.266;10.542;2023-02-14T04:28:46;15.45;;;9.50;;
64959;SDS011;51487;52.266;10.542;2023-02-14T04:31:11;14.88;;;10.13;;
64959;SDS011;51487;52.266;10.542;2023-02-14T04:33:36;14.70;;;9.98;;
64959;SDS011;51487;52.266;10.542;2023-02-14T04:36:03;13.77;;;9.10;;
64959;SDS011;51487;52.266;10.542;2023-02-14T04:38:30;15.18;;;10.40;;
64959;SDS011;51487;52.266;10.542;2023-02-14T04:40:56;14.32;;;9.88;;
64959;SDS011;51487;52.266;10.542;2023-02-14T04:43:22;15.90;;;9.95;;
64959;SDS011;51487;52.266;10.542;2023-02-14T04:45:47;14.13;;;9.27;;
64959;SDS011;51487;52.266;10.542;2023-02-14T04:48:13;13.63;;;10.35;;
64959;SDS011;51487;52.266;10.542;2023-02-14T04:50:38;17.17;;;9.15;;
64959;SDS011;51487;52.266;10.542;2023-02-14T04:53:04;13.93;;;8.90;;
64959;SDS011;51487;52.266;10.542;2023-02-14T04:55:30;13.70;;;9.63;;
64959;SDS011;51487;52.266;10.542;2023-02-14T04:57:55;13.05;;;9.07;;
64959;SDS011;51487;52.266;10.542;2023-02-14T05:00:20;13.82;;;9.70;;
64959;SDS011;51487;52.266;10.542;2023-02-14T05:02:46;14.45;;;8.98;;
64959;SDS011;51487;52.266;10.542;2023-02-14T05:05:12;13.38;;;9.50;;
64959;SDS011;51487;52.266;10.542;2023-02-14T05:07:37;13.77;;;8.85;;
64959;SDS011;51487;52.266;10.542;2023-02-14T05:10:03;11.27;;;8.75;;
64959;SDS011;51487;52.266;10.542;2023-02-14T05:12:30;12.05;;;9.27;;
64959;SDS011;51487;52.266;10.542;2023-02-14T05:14:56;12.73;;;8.95;;
64959;SDS011;51487;52.266;10.542;2023-02-14T05:17:24;12.20;;;8.73;;
64959;SDS011;51487;52.266;10.542;2023-02-14T05:19:49;13.70;;;9.15;;
64959;SDS011;51487;52.266;10.542;2023-02-14T05:22:15;15.88;;;9.45;;
64959;SDS011;51487;52.266;10.542;2023-02-14T05:24:40;14.35;;;9.93;;
64959;SDS011;51487;52.266;10.542;2023-02-14T05:27:06;14.68;;;9.80;;
64959;SDS011;51487;52.266;10.542;2023-02-14T05:29:35;14.05;;;10.35;;
64959;SDS011;51487;52.266;10.542;2023-02-14T05:32:01;17.00;;;9.45;;
64959;SDS011;51487;52.266;10.542;2023-02-14T05:34:27;17.92;;;10.05;;
64959;SDS011;51487;52.266;10.542;2023-02-14T05:36:53;20.50;;;10.15;;
64959;SDS011;51487;52.266;10.542;2023-02-14T05:39:19;22.63;;;9.50;;
64959;SDS011;51487;52.266;10.542;2023-02-14T05:41:44;20.40;;;9.70;;
64959;SDS011;51487;52.266;10.542;2023-02-14T05:44:10;19.58;;;9.05;;
64959;SDS011;51487;52.266;10.542;2023-02-14T05:46:35;23.67;;;10.20;;
64959;SDS011;51487;52.266;10.542;2023-02-14T05:49:01;20.63;;;9.18;;
64959;SDS011;51487;52.266;10.542;2023-02-14T05:51:28;23.45;;;9.25;;
64959;SDS011;51487;52.266;10.542;2023-02-14T05:53:54;30.27;;;9.90;;
64959;SDS011;51487;52.266;10.542;2023-02-14T05:56:21;32.78;;;8.82;;
64959;SDS011;51487;52.266;10.542;2023-02-14T05:58:47;20.65;;;8.68;;
64959;SDS011;51487;52.266;10.542;2023-02-14T06:01:12;21.38;;;9.35;;
64959;SDS011;51487;52.266;10.542;2023-02-14T06:03:38;21.05;;;8.32;;
64959;SDS011;51487;52.266;10.542;2023-02-14T06:06:03;24.20;;;9.23;;
64959;SDS011;51487;52.266;10.542;2023-02-14T06:08:29;16.55;;;8.80;;
64959;SDS011;51487;52.266;10.542;2023-02-14T06:10:55;25.63;;;9.93;;
64959;SDS011;51487;52.266;10.542;2023-02-14T06:13:20;25.98;;;9.80;;
64959;SDS011;51487;52.266;10.542;2023-02-14T06:15:46;17.08;;;8.73;;
64959;SDS011;51487;52.266;10.542;2023-02-14T06:18:11;18.48;;;7.97;;
64959;SDS011;51487;52.266;10.542;2023-02-14T06:20:37;18.23;;;7.72;;
64959;SDS011;51487;52.266;10.542;2023-02-14T06:23:02;13.13;;;7.35;;
64959;SDS011;51487;52.266;10.542;2023-02-14T06:25:28;20.02;;;8.20;;
64959;SDS011;51487;52.266;10.542;2023-02-14T06:27:54;17.58;;;8.50;;
64959;SDS011;51487;52.266;10.542;2023-02-14T06:30:21;14.43;;;6.97;;
64959;SDS011;51487;52.266;10.542;2023-02-14T06:32:47;15.00;;;7.72;;
64959;SDS011;51487;52.266;10.542;2023-02-14T06:35:13;17.25;;;7.07;;
64959;SDS011;51487;52.266;10.542;2023-02-14T06:37:39;16.98;;;6.68;;
64959;SDS011;51487;52.266;10.542;2023-02-14T06:40:08;13.30;;;6.95;;
64959;SDS011;51487;52.266;10.542;2023-02-14T06:42:34;15.32;;;6.72;;
64959;SDS011;51487;52.266;10.542;2023-02-14T06:45:00;16.00;;;7.68;;
64959;SDS011;51487;52.266;10.542;2023-02-14T06:47:26;14.88;;;7.78;;
64959;SDS011;51487;52.266;10.542;2023-02-14T06:49:52;16.08;;;8.48;;
64959;SDS011;51487;52.266;10.542;2023-02-14T06:52:17;14.60;;;7.30;;
64959;SDS011;51487;52.266;10.542;2023-02-14T06:54:43;13.10;;;7.63;;
64959;SDS011;51487;52.266;10.542;2023-02-14T06:57:08;14.27;;;7.57;;
64959;SDS011;51487;52.266;10.542;2023-02-14T06:59:34;10.73;;;7.30;;
64959;SDS011;51487;52.266;10.542;2023-02-14T07:01:59;19.38;;;7.60;;
64959;SDS011;51487;52.266;10.542;2023-02-14T07:04:25;17.08;;;7.78;;
64959;SDS011;51487;52.266;10.542;2023-02-14T07:06:50;20.25;;;7.40;;
64959;SDS011;51487;52.266;10.542;2023-02-14T07:09:16;23.85;;;7.55;;
64959;SDS011;51487;52.266;10.542;2023-02-14T07:11:42;16.85;;;7.60;;
64959;SDS011;51487;52.266;10.542;2023-02-14T07:14:09;12.02;;;8.07;;
64959;SDS011;51487;52.266;10.542;2023-02-14T07:16:35;11.77;;;7.32;;
64959;SDS011;51487;52.266;10.542;2023-02-14T07:19:01;11.82;;;6.78;;
64959;SDS011;51487;52.266;10.542;2023-02-14T07:21:26;9.77;;;6.43;;
64959;SDS011;51487;52.266;10.542;2023-02-14T07:23:52;9.70;;;6.97;;
64959;SDS011;51487;52.266;10.542;2023-02-14T07:26:17;14.15;;;8.13;;
64959;SDS011;51487;52.266;10.542;2023-02-14T07:28:46;11.57;;;7.65;;
64959;SDS011;51487;52.266;10.542;2023-02-14T07:31:16;14.68;;;6.75;;
64959;SDS011;51487;52.266;10.542;2023-02-14T07:33:43;12.48;;;6.43;;
64959;SDS011;51487;52.266;10.542;2023-02-14T07:36:09;8.50;;;6.05;;
64959;SDS011;51487;52.266;10.542;2023-02-14T07:38:35;9.68;;;6.13;;
64959;SDS011;51487;52.266;10.542;2023-02-14T07:41:01;7.82;;;5.65;;
64959;SDS011;51487;52.266;10.542;2023-02-14T07:43:27;7.30;;;5.53;;
64959;SDS011;51487;52.266;10.542;2023-02-14T07:45:53;7.72;;;6.38;;
64959;SDS011;51487;52.266;10.542;2023-02-14T07:48:18;17.60;;;5.72;;
64959;SDS011;51487;52.266;10.542;2023-02-14T07:50:44;12.40;;;6.05;;
64959;SDS011;51487;52.266;10.542;2023-02-14T07:53:09;6.95;;;5.68;;
64959;SDS011;51487;52.266;10.542;2023-02-14T07:55:35;8.73;;;6.65;;
64959;SDS011;51487;52.266;10.542;2023-02-14T07:58:01;7.28;;;5.90;;
64959;SDS011;51487;52.266;10.542;2023-02-14T08:00:26;7.40;;;5.50;;
64959;SDS011;51487;52.266;10.542;2023-02-14T08:02:52;6.70;;;5.68;;
64959;SDS011;51487;52.266;10.542;2023-02-14T08:05:20;6.63;;;5.50;;
64959;SDS011;51487;52.266;10.542;2023-02-14T08:07:46;8.02;;;5.70;;
64959;SDS011;51487;52.266;10.542;2023-02-14T08:10:12;6.15;;;4.72;;
64959;SDS011;51487;52.266;10.542;2023-02-14T08:12:39;13.65;;;4.90;;
64959;SDS011;51487;52.266;10.542;2023-02-14T08:15:24;5.93;;;4.40;;
64959;SDS011;51487;52.266;10.542;2023-02-14T08:18:15;7.05;;;5.63;;
64959;SDS011;51487;52.266;10.542;2023-02-14T08:20:42;7.03;;;5.13;;
64959;SDS011;51487;52.266;10.542;2023-02-14T08:23:09;6.25;;;4.93;;
64959;SDS011;51487;52.266;10.542;2023-02-14T08:25:35;6.50;;;5.40;;
64959;SDS011;51487;52.266;10.542;2023-02-14T08:28:01;6.28;;;4.80;;
64959;SDS011;51487;52.266;10.542;2023-02-14T08:30:28;6.57;;;5.60;;
64959;SDS011;51487;52.266;10.542;2023-02-14T08:32:53;7.60;;;5.47;;
64959;SDS011;51487;52.266;10.542;2023-02-14T08:35:19;6.32;;;4.97;;
64959;SDS011;51487;52.266;10.542;2023-02-14T08:37:45;6.43;;;5.40;;
64959;SDS011;51487;52.266;10.542;2023-02-14T08:40:10;6.38;;;4.97;;
64959;SDS011;51487;52.266;10.542;2023-02-14T08:42:36;6.10;;;4.90;;
64959;SDS011;51487;52.266;10.542;2023-02-14T08:45:02;7.55;;;5.47;;
64959;SDS011;51487;52.266;10.542;2023-02-14T08:47:28;7.15;;;5.38;;
64959;SDS011;51487;52.266;10.542;2023-02-14T08:50:00;13.93;;;5.45;;
64959;SDS011;51487;52.266;10.542;2023-02-14T08:52:27;6.28;;;5.25;;
64959;SDS011;51487;52.266;10.542;2023-02-14T08:54:52;6.03;;;4.93;;
64959;SDS011;51487;52.266;10.542;2023-02-14T08:57:18;7.88;;;4.90;;
64959;SDS011;51487;52.266;10.542;2023-02-14T08:59:43;7.57;;;5.50;;
64959;SDS011;51487;52.266;10.542;2023-02-14T09:02:12;6.13;;;5.18;;
64959;SDS011;51487;52.266;10.542;2023-02-14T09:04:40;8.80;;;5.15;;
64959;SDS011;51487;52.266;10.542;2023-02-14T09:07:06;6.57;;;4.93;;
64959;SDS011;51487;52.266;10.542;2023-02-14T09:09:32;7.20;;;5.47;;
64959;SDS011;51487;52.266;10.542;2023-02-14T09:12:01;6.30;;;5.22;;
64959;SDS011;51487;52.266;10.542;2023-02-14T09:14:29;8.60;;;5.43;;
64959;SDS011;51487;52.266;10.542;2023-02-14T09:16:54;7.15;;;5.95;;
64959;SDS011;51487;52.266;10.542;2023-02-14T09:19:25;6.68;;;5.38;;
64959;SDS011;51487;52.266;10.542;2023-02-14T09:21:50;6.68;;;5.97;;
64959;SDS011;51487;52.266;10.542;2023-02-14T09:24:16;6.30;;;5.35;;
64959;SDS011;51487;52.266;10.542;2023-02-14T09:26:41;7.78;;;5.30;;
64959;SDS011;51487;52.266;10.542;2023-02-14T09:29:07;7.15;;;5.10;;
64959;SDS011;51487;52.266;10.542;2023-02-14T09:31:33;5.43;;;4.82;;
64959;SDS011;51487;52.266;10.542;2023-02-14T09:33:59;8.65;;;5.70;;
64959;SDS011;51487;52.266;10.542;2023-02-14T09:36:24;8.82;;;5.95;;
64959;SDS011;51487;52.266;10.542;2023-02-14T09:39:09;6.82;;;5.40;;
64959;SDS011;51487;52.266;10.542;2023-02-14T09:44:47;7.95;;;5.10;;
64959;SDS011;51487;52.266;10.542;2023-02-14T09:47:42;6.35;;;5.47;;
64959;SDS011;51487;52.266;10.542;2023-02-14T09:50:21;8.90;;;5.45;;
64959;SDS011;51487;52.266;10.542;2023-02-14T09:52:55;6.25;;;5.57;;
64959;SDS011;51487;52.266;10.542;2023-02-14T09:55:38;6.70;;;5.28;;
64959;SDS011;51487;52.266;10.542;2023-02-14T09:58:22;6.85;;;5.40;;
64959;SDS011;51487;52.266;10.542;2023-02-14T10:01:09;8.80;;;6.25;;
64959;SDS011;51487;52.266;10.542;2023-02-14T10:03:55;8.15;;;6.10;;
64959;SDS011;51487;52.266;10.542;2023-02-14T10:06:53;6.78;;;5.28;;
64959;SDS011;51487;52.266;10.542;2023-02-14T10:15:17;6.70;;;4.93;;
64959;SDS011;51487;52.266;10.542;2023-02-14T10:17:52;5.80;;;5.00;;
64959;SDS011;51487;52.266;10.542;2023-02-14T10:20:26;7.10;;;5.43;;
64959;SDS011;51487;52.266;10.542;2023-02-14T10:23:18;5.93;;;5.22;;
64959;SDS011;51487;52.266;10.542;2023-02-14T10:28:30;6.00;;;5.00;;
64959;SDS011;51487;52.266;10.542;2023-02-14T10:31:45;6.00;;;4.97;;
64959;SDS011;51487;52.266;10.542;2023-02-14T10:39:40;6.32;;;4.82;;
64959;SDS011;51487;52.266;10.542;2023-02-14T10:45:25;6.18;;;5.25;;
64959;SDS011;51487;52.266;10.542;2023-02-14T10:54:13;7.30;;;6.10;;
64959;SDS011;51487;52.266;10.542;2023-02-14T10:57:00;6.57;;;5.35;;
64959;SDS011;51487;52.266;10.542;2023-02-14T10:59:51;8.80;;;5.53;;
64959;SDS011;51487;52.266;10.542;2023-02-14T11:02:36;6.53;;;5.50;;
64959;SDS011;51487;52.266;10.542;2023-02-14T11:05:07;6.32;;;5.40;;
64959;SDS011;51487;52.266;10.542;2023-02-14T11:08:01;7.80;;;5.53;;
64959;SDS011;51487;52.266;10.542;2023-02-14T11:10:38;7.78;;;6.20;;
64959;SDS011;51487;52.266;10.542;2023-02-14T11:13:24;7.95;;;6.25;;
64959;SDS011;51487;52.266;10.542;2023-02-14T11:16:00;6.68;;;5.65;;
64959;SDS011;51487;52.266;10.542;2023-02-14T11:18:30;7.43;;;6.07;;
64959;SDS011;51487;52.266;10.542;2023-02-14T11:21:13;7.72;;;5.60;;
64959;SDS011;51487;52.266;10.542;2023-02-14T11:23:49;6.50;;;5.45;;
64959;SDS011;51487;52.266;10.542;2023-02-14T11:26:23;7.28;;;6.07;;
64959;SDS011;51487;52.266;10.542;2023-02-14T11:29:09;12.30;;;6.60;;
64959;SDS011;51487;52.266;10.542;2023-02-14T11:31:38;6.88;;;6.03;;
64959;SDS011;51487;52.266;10.542;2023-02-14T11:34:18;8.18;;;6.63;;
64959;SDS011;51487;52.266;10.542;2023-02-14T11:37:25;8.25;;;6.70;;
64959;SDS011;51487;52.266;10.542;2023-02-14T11:40:01;8.77;;;6.90;;
64959;SDS011;51487;52.266;10.542;2023-02-14T11:42:42;10.18;;;7.30;;
64959;SDS011;51487;52.266;10.542;2023-02-14T11:48:22;9.20;;;7.07;;
64959;SDS011;51487;52.266;10.542;2023-02-14T11:50:56;9.45;;;7.18;;
64959;SDS011;51487;52.266;10.542;2023-02-14T11:53:32;8.82;;;7.22;;
64959;SDS011;51487;52.266;10.542;2023-02-14T11:56:09;9.65;;;7.18;;
64959;SDS011;51487;52.266;10.542;2023-02-14T11:58:36;9.75;;;7.78;;
64959;SDS011;51487;52.266;10.542;2023-02-14T12:01:14;9.40;;;7.47;;
64959;SDS011;51487;52.266;10.542;2023-02-14T12:04:06;10.60;;;7.13;;
64959;SDS011;51487;52.266;10.542;2023-02-14T12:10:05;8.23;;;6.95;;
64959;SDS011;51487;52.266;10.542;2023-02-14T12:12:57;8.85;;;7.05;;
64959;SDS011;51487;52.266;10.542;2023-02-14T12:15:34;9.32;;;6.85;;
64959;SDS011;51487;52.266;10.542;2023-02-14T12:21:00;8.13;;;6.65;;
64959;SDS011;51487;52.266;10.542;2023-02-14T12:29:08;9.23;;;7.05;;
64959;SDS011;51487;52.266;10.542;2023-02-14T12:31:46;9.55;;;6.55;;
64959;SDS011;51487;52.266;10.542;2023-02-14T12:34:13;9.93;;;6.35;;
64959;SDS011;51487;52.266;10.542;2023-02-14T12:51:15;8.45;;;6.70;;
64959;SDS011;51487;52.266;10.542;2023-02-14T13:08:18;7.45;;;6.35;;
64959;SDS011;51487;52.266;10.542;2023-02-14T13:23:09;7.90;;;6.40;;
64959;SDS011;51487;52.266;10.542;2023-02-14T13:26:02;7.93;;;6.60;;
64959;SDS011;51487;52.266;10.542;2023-02-14T13:28:36;7.78;;;6.88;;
64959;SDS011;51487;52.266;10.542;2023-02-14T13:31:08;7.75;;;6.80;;
64959;SDS011;51487;52.266;10.542;2023-02-14T13:33:42;7.68;;;6.68;;
64959;SDS011;51487;52.266;10.542;2023-02-14T13:36:16;8.05;;;6.63;;
64959;SDS011;51487;52.266;10.542;2023-02-14T13:38:45;9.75;;;7.57;;
64959;SDS011;51487;52.266;10.542;2023-02-14T13:41:15;9.07;;;7.35;;
64959;SDS011;51487;52.266;10.542;2023-02-14T13:43:50;8.88;;;7.60;;
64959;SDS011;51487;52.266;10.542;2023-02-14T13:51:59;11.57;;;8.27;;
64959;SDS011;51487;52.266;10.542;2023-02-14T13:54:43;10.40;;;8.68;;
64959;SDS011;51487;52.266;10.542;2023-02-14T14:10:51;13.82;;;9.60;;
64959;SDS011;51487;52.266;10.542;2023-02-14T14:13:52;13.07;;;9.95;;
64959;SDS011;51487;52.266;10.542;2023-02-14T14:18:53;11.55;;;9.38;;
64959;SDS011;51487;52.266;10.542;2023-02-14T14:21:30;11.82;;;9.18;;
64959;SDS011;51487;52.266;10.542;2023-02-14T14:26:49;11.40;;;8.93;;
64959;SDS011;51487;52.266;10.542;2023-02-14T14:29:36;11.00;;;9.10;;
64959;SDS011;51487;52.266;10.542;2023-02-14T14:32:19;11.10;;;9.13;;
64959;SDS011;51487;52.266;10.542;2023-02-14T14:34:51;12.63;;;9.20;;
64959;SDS011;51487;52.266;10.542;2023-02-14T14:37:24;14.70;;;9.10;;
64959;SDS011;51487;52.266;10.542;2023-02-14T14:39:59;11.88;;;9.43;;
64959;SDS011;51487;52.266;10.542;2023-02-14T14:42:33;14.48;;;10.95;;
64959;SDS011;51487;52.266;10.542;2023-02-14T14:45:06;12.52;;;9.88;;
64959;SDS011;51487;52.266;10.542;2023-02-14T14:47:45;13.45;;;11.10;;
64959;SDS011;51487;52.266;10.542;2023-02-14T14:50:15;12.07;;;9.90;;
64959;SDS011;51487;52.266;10.542;2023-02-14T14:52:58;12.00;;;10.45;;
64959;SDS011;51487;52.266;10.542;2023-02-14T14:55:29;13.40;;;10.43;;
64959;SDS011;51487;52.266;10.542;2023-02-14T14:57:59;13.02;;;11.43;;
64959;SDS011;51487;52.266;10.542;2023-02-14T15:00:29;13.32;;;10.85;;
64959;SDS011;51487;52.266;10.542;2023-02-14T15:05:37;14.90;;;12.00;;
64959;SDS011;51487;52.266;10.542;2023-02-14T15:08:27;15.65;;;11.98;;
64959;SDS011;51487;52.266;10.542;2023-02-14T15:11:02;15.95;;;12.38;;
64959;SDS011;51487;52.266;10.542;2023-02-14T15:13:41;15.27;;;11.95;;
64959;SDS011;51487;52.266;10.542;2023-02-14T15:19:06;17.67;;;13.65;;
64959;SDS011;51487;52.266;10.542;2023-02-14T15:21:41;17.73;;;13.07;;
64959;SDS011;51487;52.266;10.542;2023-02-14T15:24:09;18.15;;;14.07;;
64959;SDS011;51487;52.266;10.542;2023-02-14T15:26:41;17.55;;;13.80;;
64959;SDS011;51487;52.266;10.542;2023-02-14T15:29:17;18.17;;;13.23;;
64959;SDS011;51487;52.266;10.542;2023-02-14T15:31:56;18.02;;;12.95;;
64959;SDS011;51487;52.266;10.542;2023-02-14T15:34:27;19.90;;;14.40;;
64959;SDS011;51487;52.266;10.542;2023-02-14T15:37:00;19.65;;;14.88;;
64959;SDS011;51487;52.266;10.542;2023-02-14T15:39:38;23.10;;;16.23;;
64959;SDS011;51487;52.266;10.542;2023-02-14T15:42:21;19.00;;;14.55;;
64959;SDS011;51487;52.266;10.542;2023-02-14T15:47:45;23.15;;;15.93;;
64959;SDS011;51487;52.266;10.542;2023-02-14T15:50:15;23.35;;;16.40;;
64959;SDS011;51487;52.266;10.542;2023-02-14T15:52:48;23.45;;;16.25;;
64959;SDS011;51487;52.266;10.542;2023-02-14T15:55:17;22.40;;;16.58;;
64959;SDS011;51487;52.266;10.542;2023-02-14T15:57:53;22.08;;;16.42;;
64959;SDS011;51487;52.266;10.542;2023-02-14T16:00:24;25.52;;;17.60;;
64959;SDS011;51487;52.266;10.542;2023-02-14T16:02:55;26.90;;;17.70;;
64959;SDS011;51487;52.266;10.542;2023-02-14T16:05:29;26.63;;;18.05;;
64959;SDS011;51487;52.266;10.542;2023-02-14T16:10:28;26.77;;;18.95;;
64959;SDS011;51487;52.266;10.542;2023-02-14T16:15:38;30.77;;;19.27;;
64959;SDS011;51487;52.266;10.542;2023-02-14T16:18:31;29.98;;;19.45;;
64959;SDS011;51487;52.266;10.542;2023-02-14T16:26:30;32.97;;;20.10;;
64959;SDS011;51487;52.266;10.542;2023-02-14T16:29:02;29.75;;;19.58;;
64959;SDS011;51487;52.266;10.542;2023-02-14T16:31:32;29.85;;;21.20;;
64959;SDS011;51487;52.266;10.542;2023-02-14T16:33:58;30.08;;;20.88;;
64959;SDS011;51487;52.266;10.542;2023-02-14T16:36:28;30.13;;;20.30;;
64959;SDS011;51487;52.266;10.542;2023-02-14T16:38:56;31.13;;;20.87;;
64959;SDS011;51487;52.266;10.542;2023-02-14T16:41:27;34.17;;;21.38;;
64959;SDS011;51487;52.266;10.542;2023-02-14T16:43:54;33.28;;;22.15;;
64959;SDS011;51487;52.266;10.542;2023-02-14T16:46:21;34.55;;;22.83;;
64959;SDS011;51487;52.266;10.542;2023-02-14T16:48:52;32.30;;;22.13;;
64959;SDS011;51487;52.266;10.542;2023-02-14T16:51:19;34.03;;;23.33;;
64959;SDS011;51487;52.266;10.542;2023-02-14T16:53:47;33.63;;;22.55;;
64959;SDS011;51487;52.266;10.542;2023-02-14T16:57:00;32.42;;;23.20;;
64959;SDS011;51487;52.266;10.542;2023-02-14T16:59:22;36.33;;;23.83;;
64959;SDS011;51487;52.266;10.542;2023-02-14T17:01:48;35.15;;;23.33;;
64959;SDS011;51487;52.266;10.542;2023-02-14T17:04:13;35.35;;;23.38;;
64959;SDS011;51487;52.266;10.542;2023-02-14T17:06:40;36.08;;;22.38;;
64959;SDS011;51487;52.266;10.542;2023-02-14T17:09:12;33.92;;;22.95;;
64959;SDS011;51487;52.266;10.542;2023-02-14T17:11:42;32.38;;;22.63;;
64959;SDS011;51487;52.266;10.542;2023-02-14T17:14:13;34.30;;;22.98;;
64959;SDS011;51487;52.266;10.542;2023-02-14T17:16:47;36.03;;;22.05;;
64959;SDS011;51487;52.266;10.542;2023-02-14T17:19:13;35.08;;;22.88;;
64959;SDS011;51487;52.266;10.542;2023-02-14T17:21:39;32.05;;;22.17;;
64959;SDS011;51487;52.266;10.542;2023-02-14T17:24:05;33.88;;;23.38;;
64959;SDS011;51487;52.266;10.542;2023-02-14T17:26:30;33.20;;;22.50;;
64959;SDS011;51487;52.266;10.542;2023-02-14T17:28:57;37.67;;;23.15;;
64959;SDS011;51487;52.266;10.542;2023-02-14T17:31:23;34.47;;;23.13;;
64959;SDS011;51487;52.266;10.542;2023-02-14T17:33:49;34.63;;;22.63;;
64959;SDS011;51487;52.266;10.542;2023-02-14T17:36:14;36.55;;;24.20;;
64959;SDS011;51487;52.266;10.542;2023-02-14T17:38:40;30.48;;;22.38;;
64959;SDS011;51487;52.266;10.542;2023-02-14T17:41:13;34.25;;;22.35;;